Houlka, MS (38850)

9:29 AM CDT on October 22, 2014 (GMT -0500)
RAWS HIGHWAY 41 MS US | Change Station
CLOSE
Current Station
Personal Weather Station
Location: Algoma, MS
Elevation: 319 ft
Nearby Weather Stations

Elev 319 ft 34.09 °N, 88.86 °W | Updated 37 minutes ago

Clear
Clear
51 °F
Feels Like 51 °F
N
0
Wind Variable Wind from North
Gusts 6.0 mph

Today
High -- | Low -- °F
--% Chance of Precip.
Yesterday
High -- | Low -- °F
Precip. -- in
7:06 AM 6:13 PM
Waning Crescent, 2% visible
Pressure 30.20 in
Visibility 10.0 miles
Clouds Clear
Dew Point 48 °F
Humidity 91%
Rainfall 0.00 in
Snow Depth Not available.
UV 1 out of 12
Pollen 1.90 out of 12
Air Quality Not available.
Flu Activity No Activity
METAR KTUP 221353Z 06010KT 10SM CLR 12/07 A3021 RMK AO2 SLP227 T01170072

More Conditions Fewer Conditions

Pressure 30.20 in
Visibility 10.0 miles
Clouds Clear
Dew Point 48 °F
Humidity 91%
Rainfall 0.00 in
Snow Depth Not available.
UV 1 out of 12
Pollen 1.90 out of 12
Air Quality Not available.
Flu Activity No Activity
METAR KTUP 221353Z 06010KT 10SM CLR 12/07 A3021 RMK AO2 SLP227 T01170072

More Conditions Fewer Conditions

10-Day Weather Forecast

Almanac

Astronomy

Oct. 22, 2014 Rise Set
Actual Time 7:06 AM CDT 6:13 PM CDT
Civil Twilight 6:41 AM CDT 6:39 PM CDT
Nautical Twilight 6:12 AM CDT 7:08 PM CDT
Astronomical Twilight 5:43 AM CDT 7:37 PM CDT
Moon 5:51 AM CDT 5:37 PM CDT
Length of Visible Light 11h 57m
Length of Day
11h 06m
Tomorrow will be 1m 58s shorter.
Waning Crescent, 2% of the Moon is Illuminated
Today
Waning Crescent
Oct 23
New
Oct 30
First Quarter
Nov 6
Full
Nov 14
Last Quarter

Today's Extremes

State Highs State Lows

Community

WunderPhotos

Upload Photos

1,763,927 photos uploaded!

WunderBlogs® & News

Nearby

Snow Depth

Station Depth Elevation
No new snow has been reported.

Earthquake Activity

City Distance Mag. Time & Date
No recent earthquake activity has been reported nearby.
Minimum magnitude displayed is 2.5.

Coastal Water Temperatures

Place Temperature
No Stations Reporting

Nearby Weather Stations